Time;durP1;ratioP1;P1;durP2;ratioP2;P2;SDS_P1;SDS_P2;PMS_P1;PMS_P2;Temp;Humidity;BMP_temperature;BMP_pressure;BME280_temperature;BME280_humidity;BME280_pressure;Samples;Min_cycle;Max_cycle;Signal;HPM_P1;HPM_P2
2022/10/13 00:01:17;;;;;;;8.88;4.03;;;8.00;99.90;;;;;;4999487;28;20034;-49
2022/10/13 00:03:47;;;;;;;8.23;3.47;;;8.00;99.90;;;;;;4994511;28;20072;-49
2022/10/13 00:06:14;;;;;;;6.00;3.17;;;8.10;99.90;;;;;;4993724;28;20125;-49
2022/10/13 00:08:41;;;;;;;5.07;2.83;;;8.00;99.90;;;;;;4990357;28;20030;-47
2022/10/13 00:11:17;;;;;;;7.75;4.05;;;8.10;99.90;;;;;;4989045;28;20019;-46
2022/10/13 00:13:44;;;;;;;9.68;4.07;;;8.10;99.90;;;;;;4987496;28;20436;-47
2022/10/13 00:16:13;;;;;;;9.13;3.22;;;8.10;99.90;;;;;;4997102;28;20026;-48
2022/10/13 00:18:39;;;;;;;7.70;3.28;;;8.00;99.90;;;;;;4996235;28;20026;-51
2022/10/13 00:21:09;;;;;;;9.80;3.45;;;8.00;99.90;;;;;;4998812;28;20060;-47
2022/10/13 00:23:35;;;;;;;6.93;3.33;;;8.00;99.90;;;;;;5000502;28;20033;-46
2022/10/13 00:26:07;;;;;;;8.43;3.58;;;8.10;99.90;;;;;;5001429;28;20029;-46
2022/10/13 00:28:33;;;;;;;5.78;3.30;;;8.10;99.90;;;;;;5001089;28;20048;-47
2022/10/13 00:30:58;;;;;;;4.38;3.35;;;8.00;99.90;;;;;;5005013;28;20449;-46
2022/10/13 00:33:24;;;;;;;6.88;3.08;;;8.00;99.90;;;;;;4999358;28;20041;-46
2022/10/13 00:35:50;;;;;;;11.52;3.60;;;8.10;99.90;;;;;;5006493;28;20033;-46
2022/10/13 00:38:17;;;;;;;6.90;3.53;;;8.10;99.90;;;;;;5003696;28;20497;-46
2022/10/13 00:40:54;;;;;;;11.45;3.95;;;8.10;99.90;;;;;;5006857;28;20135;-47
2022/10/13 00:43:22;;;;;;;6.07;3.05;;;8.10;99.90;;;;;;4996170;28;20030;-46
2022/10/13 00:45:51;;;;;;;6.80;4.00;;;8.10;99.90;;;;;;5004341;28;20037;-48
2022/10/13 00:48:24;;;;;;;9.10;3.67;;;8.10;99.90;;;;;;4992908;28;20039;-49
2022/10/13 00:50:50;;;;;;;4.15;3.05;;;8.10;99.90;;;;;;4999077;28;20443;-47
2022/10/13 00:53:19;;;;;;;4.25;2.95;;;8.10;99.90;;;;;;4997657;28;20032;-47
2022/10/13 00:55:46;;;;;;;5.75;3.50;;;8.00;99.90;;;;;;5000929;28;20026;-50
2022/10/13 00:58:15;;;;;;;8.77;3.72;;;8.00;99.90;;;;;;5001883;28;20149;-45
2022/10/13 01:00:44;;;;;;;4.63;3.63;;;8.10;99.90;;;;;;4998318;28;20154;-46
2022/10/13 01:03:10;;;;;;;7.28;3.13;;;8.00;99.90;;;;;;4999201;28;20157;-46
2022/10/13 01:05:37;;;;;;;8.98;3.70;;;8.00;99.90;;;;;;4993693;28;20054;-46
2022/10/13 01:08:03;;;;;;;5.13;3.33;;;8.00;99.90;;;;;;5018210;28;20064;-47
2022/10/13 01:10:56;;;;;;;9.13;4.25;;;8.00;99.90;;;;;;5001935;28;20473;-47
2022/10/13 01:13:33;;;;;;;6.32;4.10;;;8.00;99.90;;;;;;4998100;28;20026;-45
2022/10/13 01:16:24;;;;;;;7.63;2.65;;;8.00;99.90;;;;;;5004539;28;20025;-49
2022/10/13 01:19:10;;;;;;;7.22;2.97;;;8.00;99.90;;;;;;5018884;23;20042;-50
2022/10/13 01:21:59;;;;;;;6.65;3.45;;;8.00;99.90;;;;;;4999404;28;20034;-51
2022/10/13 01:24:45;;;;;;;8.10;3.30;;;7.90;99.90;;;;;;4999107;28;20294;-52
2022/10/13 01:27:26;;;;;;;5.72;3.42;;;7.90;99.90;;;;;;5010334;28;20091;-53
2022/10/13 01:30:20;;;;;;;8.82;3.13;;;7.90;99.90;;;;;;4972809;28;20517;-51
2022/10/13 01:33:18;;;;;;;6.03;3.28;;;7.80;99.90;;;;;;4977297;28;20105;-51
2022/10/13 01:36:05;;;;;;;6.13;3.42;;;7.80;99.90;;;;;;4979095;28;20053;-54
2022/10/13 01:38:38;;;;;;;5.15;2.72;;;7.70;99.90;;;;;;4980180;28;20385;-52
2022/10/13 01:41:18;;;;;;;9.60;3.70;;;7.60;99.90;;;;;;4984693;28;20053;-54
2022/10/13 01:43:54;;;;;;;5.57;2.70;;;7.60;99.90;;;;;;4980544;28;20045;-57
2022/10/13 01:46:31;;;;;;;9.50;3.50;;;7.60;99.90;;;;;;4982608;28;20456;-53
2022/10/13 01:49:01;;;;;;;5.32;3.58;;;7.50;99.90;;;;;;4984673;28;20117;-53
2022/10/13 01:51:30;;;;;;;6.05;3.50;;;7.40;99.90;;;;;;4987822;28;20034;-53
2022/10/13 01:53:55;;;;;;;3.47;2.80;;;7.40;99.90;;;;;;4980209;28;20031;-55
2022/10/13 01:56:21;;;;;;;5.40;2.95;;;7.30;99.90;;;;;;4991105;28;20393;-52
2022/10/13 01:58:49;;;;;;;5.38;3.20;;;7.30;99.90;;;;;;4981305;28;20507;-54
2022/10/13 02:01:46;;;;;;;7.03;3.70;;;7.30;99.90;;;;;;4974072;28;20398;-54
2022/10/13 02:04:40;;;;;;;3.97;3.15;;;7.20;99.90;;;;;;4978213;28;20036;-52
2022/10/13 02:07:14;;;;;;;5.20;2.92;;;7.20;99.90;;;;;;4980887;28;20031;-56
2022/10/13 02:17:02;;;;;;;5.07;2.85;;;7.00;99.90;;;;;;4974866;28;20045;-54
2022/10/13 02:19:29;;;;;;;7.18;3.65;;;6.90;99.90;;;;;;4978751;28;20030;-54
2022/10/13 02:21:56;;;;;;;5.97;3.10;;;6.90;99.90;;;;;;4985815;28;20022;-55
2022/10/13 02:24:22;;;;;;;6.88;3.50;;;6.90;99.90;;;;;;4998489;28;20080;-52
2022/10/13 02:26:47;;;;;;;6.03;3.58;;;6.80;99.90;;;;;;4989629;28;20030;-53
2022/10/13 02:29:15;;;;;;;5.25;3.20;;;6.80;99.90;;;;;;4983044;28;20026;-57
2022/10/13 02:31:42;;;;;;;9.00;4.15;;;6.80;99.90;;;;;;4982816;28;20495;-54
2022/10/13 02:34:08;;;;;;;9.88;4.10;;;6.70;99.90;;;;;;4980987;28;20048;-52
2022/10/13 02:36:36;;;;;;;5.20;3.25;;;6.70;99.90;;;;;;4989349;28;20504;-51
2022/10/13 02:39:02;;;;;;;8.65;3.92;;;6.70;99.90;;;;;;4982557;28;20089;-54
2022/10/13 02:41:28;;;;;;;5.10;3.72;;;6.70;99.90;;;;;;4983595;28;20421;-55
2022/10/13 02:43:53;;;;;;;7.13;3.33;;;6.60;99.90;;;;;;4982925;28;20048;-56
2022/10/13 02:46:19;;;;;;;5.82;3.20;;;6.60;99.90;;;;;;4983351;28;20026;-55
2022/10/13 02:48:44;;;;;;;7.00;4.25;;;6.60;99.90;;;;;;4984359;28;20034;-52
2022/10/13 02:51:10;;;;;;;5.47;3.25;;;6.60;99.90;;;;;;4979942;28;20117;-55
2022/10/13 02:53:35;;;;;;;5.78;3.17;;;6.50;99.90;;;;;;4981698;28;20050;-56
2022/10/13 02:56:01;;;;;;;5.95;3.75;;;6.60;99.90;;;;;;4979470;28;20070;-56
2022/10/13 02:58:27;;;;;;;9.18;3.35;;;6.60;99.90;;;;;;4979263;28;20112;-56
2022/10/13 03:00:52;;;;;;;8.98;3.75;;;6.60;99.90;;;;;;4981853;28;20464;-54
2022/10/13 03:03:18;;;;;;;7.53;4.22;;;6.60;99.90;;;;;;4979368;28;20027;-54
2022/10/13 03:05:44;;;;;;;7.03;4.03;;;6.70;99.90;;;;;;5010664;28;20367;-56
2022/10/13 03:08:10;;;;;;;7.20;3.78;;;6.70;99.90;;;;;;4981935;28;20490;-57
2022/10/13 03:10:35;;;;;;;9.32;4.55;;;6.70;99.90;;;;;;4978814;28;20452;-55
2022/10/13 03:13:01;;;;;;;6.45;4.15;;;6.80;99.90;;;;;;4980526;28;20038;-56
2022/10/13 03:15:27;;;;;;;8.48;4.07;;;6.80;99.90;;;;;;4983413;28;20401;-51
2022/10/13 03:17:52;;;;;;;5.28;4.10;;;6.80;99.90;;;;;;4980168;28;20034;-55
2022/10/13 03:20:18;;;;;;;4.07;3.40;;;6.90;99.90;;;;;;4979840;28;20381;-53
2022/10/13 03:22:43;;;;;;;9.10;3.90;;;6.90;99.90;;;;;;4979438;28;20377;-53
2022/10/13 03:25:09;;;;;;;8.15;4.50;;;6.90;99.90;;;;;;4986655;28;20085;-52
2022/10/13 03:27:34;;;;;;;6.85;3.67;;;6.90;99.90;;;;;;4978760;28;20037;-55
2022/10/13 03:30:00;;;;;;;7.47;3.97;;;6.90;99.90;;;;;;4981446;28;20046;-53
2022/10/13 03:32:28;;;;;;;8.65;4.03;;;6.90;99.90;;;;;;4982406;28;20564;-52
2022/10/13 03:34:54;;;;;;;6.63;4.05;;;6.90;99.90;;;;;;4979458;28;20041;-52
2022/10/13 03:37:19;;;;;;;5.20;4.18;;;6.90;99.90;;;;;;4988061;28;20034;-53
2022/10/13 03:39:45;;;;;;;10.35;4.30;;;6.90;99.90;;;;;;4989313;28;20030;-54
2022/10/13 03:42:10;;;;;;;4.93;4.15;;;6.90;99.90;;;;;;4987099;28;20031;-57
2022/10/13 03:44:36;;;;;;;8.80;3.92;;;6.90;99.90;;;;;;4978757;28;20062;-52
2022/10/13 03:47:01;;;;;;;5.18;3.80;;;6.90;99.90;;;;;;4986837;28;20031;-51
2022/10/13 03:49:27;;;;;;;12.38;4.65;;;6.90;99.90;;;;;;4979950;28;20018;-55
2022/10/13 03:51:52;;;;;;;7.00;3.55;;;7.00;99.90;;;;;;4993992;28;20394;-51
2022/10/13 03:54:18;;;;;;;7.65;4.05;;;6.90;99.90;;;;;;4983195;28;20513;-51
2022/10/13 03:56:44;;;;;;;7.18;4.00;;;7.00;99.90;;;;;;4978774;28;20023;-53
2022/10/13 03:59:12;;;;;;;8.13;4.25;;;7.00;99.90;;;;;;5001271;28;20034;-55
2022/10/13 04:01:38;;;;;;;5.95;3.88;;;7.00;99.90;;;;;;4979927;28;20092;-57
2022/10/13 04:04:04;;;;;;;5.00;3.78;;;6.90;99.90;;;;;;4973589;28;20563;-57
2022/10/13 04:06:30;;;;;;;8.88;4.47;;;6.90;99.90;;;;;;4982053;28;20027;-57
2022/10/13 04:08:56;;;;;;;6.32;3.83;;;6.90;99.90;;;;;;4972857;28;20031;-57
2022/10/13 04:11:22;;;;;;;8.25;3.97;;;6.90;99.90;;;;;;4980252;28;20081;-58
2022/10/13 04:13:48;;;;;;;5.95;3.92;;;6.90;99.90;;;;;;4975770;28;20274;-53
2022/10/13 04:16:19;;;;;;;4.93;4.15;;;6.90;99.90;;;;;;4984567;28;20440;-54
2022/10/13 04:18:56;;;;;;;5.18;4.00;;;6.90;99.90;;;;;;4978793;28;20111;-56
2022/10/13 04:21:23;;;;;;;7.18;4.35;;;6.90;99.90;;;;;;4978894;28;20026;-56
2022/10/13 04:23:49;;;;;;;7.45;4.45;;;6.90;99.90;;;;;;4980592;28;20444;-51
2022/10/13 04:26:19;;;;;;;8.48;4.72;;;7.00;99.90;;;;;;4977161;28;20444;-55
2022/10/13 04:28:47;;;;;;;5.03;3.88;;;7.00;99.90;;;;;;4979272;28;20035;-51
2022/10/13 04:31:13;;;;;;;8.90;4.55;;;6.90;99.90;;;;;;4984857;28;20553;-53
2022/10/13 04:33:38;;;;;;;8.35;4.38;;;7.00;99.90;;;;;;4977959;28;20027;-52
2022/10/13 04:36:06;;;;;;;8.30;5.35;;;7.00;99.90;;;;;;4979766;28;20023;-54
2022/10/13 04:38:32;;;;;;;6.30;4.25;;;7.00;99.90;;;;;;4979593;28;20042;-52
2022/10/13 04:40:57;;;;;;;6.35;4.15;;;7.00;99.90;;;;;;4980394;28;20041;-54
2022/10/13 04:43:23;;;;;;;10.02;5.05;;;7.00;99.90;;;;;;4980404;28;20092;-53
2022/10/13 04:45:48;;;;;;;5.50;4.45;;;7.00;99.90;;;;;;4983828;28;20021;-53
2022/10/13 04:48:14;;;;;;;6.55;4.45;;;7.00;99.90;;;;;;4970745;28;20022;-53
2022/10/13 04:50:39;;;;;;;8.98;4.47;;;7.00;99.90;;;;;;4980333;28;20026;-52
2022/10/13 04:53:05;;;;;;;9.60;4.45;;;7.00;99.90;;;;;;4977973;28;20035;-54
2022/10/13 04:55:33;;;;;;;13.25;5.35;;;7.00;99.90;;;;;;4980667;28;20105;-52
2022/10/13 04:57:59;;;;;;;5.88;4.07;;;7.00;99.90;;;;;;4978876;28;20057;-56
2022/10/13 05:00:24;;;;;;;8.85;4.40;;;6.90;99.90;;;;;;4979081;28;20027;-52
2022/10/13 05:02:50;;;;;;;9.93;4.80;;;6.90;99.90;;;;;;4983438;28;20412;-52
2022/10/13 05:05:16;;;;;;;8.20;4.90;;;6.90;99.90;;;;;;4980433;28;20104;-53
2022/10/13 05:07:41;;;;;;;9.70;5.55;;;6.90;99.90;;;;;;4984863;28;20067;-55
2022/10/13 05:10:07;;;;;;;6.22;3.97;;;6.90;99.90;;;;;;4983801;28;20050;-56
2022/10/13 05:12:33;;;;;;;5.93;4.35;;;6.90;99.90;;;;;;4985229;28;20022;-53
2022/10/13 05:14:59;;;;;;;9.13;4.82;;;6.90;99.90;;;;;;4982663;28;20104;-53
2022/10/13 05:17:25;;;;;;;4.93;4.22;;;6.90;99.90;;;;;;4980257;28;20034;-51
2022/10/13 05:19:50;;;;;;;9.25;4.82;;;6.90;99.90;;;;;;4983319;28;20038;-51
2022/10/13 05:22:16;;;;;;;11.15;4.85;;;6.90;99.90;;;;;;4980496;28;20102;-56
2022/10/13 05:24:41;;;;;;;11.13;5.65;;;6.90;99.90;;;;;;4985854;28;20388;-54
2022/10/13 05:27:12;;;;;;;7.72;4.25;;;6.90;99.90;;;;;;4985636;28;20132;-56
2022/10/13 05:29:38;;;;;;;7.85;4.35;;;6.90;99.90;;;;;;4987249;28;20066;-55
2022/10/13 05:32:04;;;;;;;7.57;4.97;;;6.90;99.90;;;;;;4981865;28;20109;-52
2022/10/13 05:34:31;;;;;;;7.05;4.60;;;7.00;99.90;;;;;;4980476;28;20022;-54
2022/10/13 05:36:57;;;;;;;9.10;5.22;;;6.90;99.90;;;;;;4986979;28;20025;-51
2022/10/13 05:39:22;;;;;;;13.70;5.68;;;7.00;99.90;;;;;;4980442;28;20023;-54
2022/10/13 05:41:48;;;;;;;8.30;5.10;;;7.00;99.90;;;;;;4987460;28;20026;-54
2022/10/13 05:44:15;;;;;;;8.75;4.85;;;7.00;99.90;;;;;;4980253;28;20031;-55
2022/10/13 05:46:41;;;;;;;8.80;5.45;;;7.00;99.90;;;;;;4980608;28;20474;-54
2022/10/13 05:49:06;;;;;;;7.82;5.30;;;7.00;99.90;;;;;;4986072;28;20026;-55
2022/10/13 05:51:42;;;;;;;11.23;5.57;;;7.00;99.90;;;;;;4980405;28;20027;-52
2022/10/13 05:54:13;;;;;;;7.07;4.70;;;7.00;99.90;;;;;;4987230;28;20116;-55
2022/10/13 05:56:43;;;;;;;10.60;5.18;;;7.00;99.90;;;;;;4981813;28;20026;-52
2022/10/13 05:59:12;;;;;;;7.70;5.30;;;7.00;99.90;;;;;;4984152;28;20046;-56
2022/10/13 06:01:41;;;;;;;9.52;5.25;;;7.00;99.90;;;;;;4980116;28;20018;-52
2022/10/13 06:04:11;;;;;;;9.35;5.30;;;7.00;99.90;;;;;;4982664;28;20129;-52
2022/10/13 06:06:37;;;;;;;7.35;5.18;;;7.10;99.90;;;;;;4982695;28;20101;-51
2022/10/13 06:09:02;;;;;;;9.77;5.90;;;7.10;99.90;;;;;;4981516;28;20438;-52
2022/10/13 06:11:28;;;;;;;8.82;6.43;;;7.10;99.90;;;;;;4984157;28;20474;-54
2022/10/13 06:13:53;;;;;;;7.45;5.35;;;7.10;99.90;;;;;;4980588;28;20136;-56
2022/10/13 06:16:19;;;;;;;7.45;5.70;;;7.10;99.90;;;;;;4985965;28;20581;-52
2022/10/13 06:18:45;;;;;;;7.28;4.65;;;7.10;99.90;;;;;;4979161;28;20053;-53
2022/10/13 06:21:12;;;;;;;9.25;6.05;;;7.10;99.90;;;;;;4982548;28;20037;-54
2022/10/13 06:23:37;;;;;;;5.80;5.15;;;7.20;99.90;;;;;;4983095;28;20030;-55
2022/10/13 06:26:05;;;;;;;10.02;5.75;;;7.20;99.90;;;;;;4982228;28;20629;-53
2022/10/13 06:28:30;;;;;;;9.88;6.28;;;7.20;99.90;;;;;;4982590;28;20030;-54
2022/10/13 06:30:56;;;;;;;5.97;4.78;;;7.20;99.90;;;;;;4982975;28;20042;-55
2022/10/13 06:33:23;;;;;;;8.85;5.65;;;7.20;99.90;;;;;;4983353;28;20028;-52
2022/10/13 06:35:50;;;;;;;10.50;5.95;;;7.30;99.90;;;;;;4981256;28;20157;-56
2022/10/13 06:38:16;;;;;;;8.85;5.78;;;7.30;99.90;;;;;;4983177;28;20030;-53
2022/10/13 06:40:42;;;;;;;8.93;6.40;;;7.30;99.90;;;;;;4983086;28;20429;-54
2022/10/13 06:43:09;;;;;;;12.65;5.95;;;7.30;99.90;;;;;;4981400;28;20042;-53
2022/10/13 06:45:34;;;;;;;12.10;6.63;;;7.40;99.90;;;;;;4982814;28;20033;-56
2022/10/13 06:48:00;;;;;;;10.25;6.38;;;7.40;99.90;;;;;;4980127;28;20030;-53
2022/10/13 06:50:25;;;;;;;8.57;6.22;;;7.40;99.90;;;;;;4982666;28;20026;-55
2022/10/13 06:52:51;;;;;;;9.73;5.50;;;7.40;99.90;;;;;;4980718;28;20018;-56
2022/10/13 06:55:17;;;;;;;15.82;6.60;;;7.40;99.90;;;;;;4982772;28;20022;-56
2022/10/13 06:57:42;;;;;;;11.23;6.65;;;7.50;99.90;;;;;;4975308;28;20113;-54
2022/10/13 07:00:08;;;;;;;8.48;6.53;;;7.50;99.90;;;;;;4981855;28;20033;-54
2022/10/13 07:02:34;;;;;;;12.43;7.00;;;7.50;99.90;;;;;;4981987;28;20492;-58
2022/10/13 07:05:00;;;;;;;8.27;6.57;;;7.60;99.90;;;;;;4979973;28;20065;-53
2022/10/13 07:07:25;;;;;;;7.22;6.35;;;7.60;99.90;;;;;;4982825;28;20026;-54
2022/10/13 07:09:51;;;;;;;11.25;6.47;;;7.60;99.90;;;;;;4981208;28;20069;-54
2022/10/13 07:12:16;;;;;;;12.63;6.60;;;7.60;99.90;;;;;;4981701;28;20265;-52
2022/10/13 07:14:42;;;;;;;14.50;7.70;;;7.70;99.90;;;;;;4982658;28;20033;-52
2022/10/13 07:17:08;;;;;;;9.95;6.72;;;7.80;99.90;;;;;;4981728;28;20502;-55
2022/10/13 07:19:33;;;;;;;11.25;6.43;;;7.80;99.90;;;;;;4981720;28;20404;-57
2022/10/13 07:21:59;;;;;;;13.32;6.88;;;7.90;99.90;;;;;;4980687;28;20033;-56
2022/10/13 07:24:25;;;;;;;12.32;7.47;;;7.90;99.90;;;;;;4982852;28;20539;-53
2022/10/13 07:26:50;;;;;;;11.73;7.68;;;8.00;99.90;;;;;;4982158;28;20118;-52
2022/10/13 07:29:16;;;;;;;12.57;8.07;;;8.00;99.90;;;;;;4981802;28;20536;-56
2022/10/13 07:31:43;;;;;;;13.35;7.50;;;8.10;99.90;;;;;;4997229;28;20026;-56
2022/10/13 07:34:09;;;;;;;13.32;7.75;;;8.20;99.90;;;;;;4979436;28;20061;-52
2022/10/13 07:36:34;;;;;;;11.88;7.30;;;8.20;99.90;;;;;;4983557;28;20073;-53
2022/10/13 07:39:02;;;;;;;10.73;6.63;;;8.30;99.90;;;;;;4980232;28;20512;-55
2022/10/13 07:41:28;;;;;;;10.88;6.78;;;8.40;99.90;;;;;;4975570;28;20393;-52
2022/10/13 07:43:57;;;;;;;9.98;7.18;;;8.40;99.90;;;;;;4981446;28;20129;-52
2022/10/13 07:46:23;;;;;;;12.57;7.20;;;8.50;99.90;;;;;;4975058;28;20019;-55
2022/10/13 07:48:50;;;;;;;9.10;7.05;;;8.60;99.90;;;;;;4979024;28;20019;-58
2022/10/13 07:51:15;;;;;;;10.45;7.65;;;8.60;99.90;;;;;;4978074;28;20030;-55
2022/10/13 07:53:41;;;;;;;10.50;7.07;;;8.60;99.90;;;;;;4984011;28;20014;-52
2022/10/13 07:56:10;;;;;;;10.25;6.70;;;8.70;99.90;;;;;;4978953;28;20472;-52
2022/10/13 07:58:37;;;;;;;11.90;6.80;;;8.80;99.90;;;;;;4976580;28;20173;-52
2022/10/13 08:01:03;;;;;;;10.60;7.82;;;8.80;99.90;;;;;;4979520;28;20036;-53
2022/10/13 08:03:30;;;;;;;10.90;7.60;;;8.90;99.90;;;;;;4983559;28;20036;-57
2022/10/13 08:05:58;;;;;;;11.57;7.45;;;9.00;99.90;;;;;;5000509;28;20037;-52
2022/10/13 08:08:24;;;;;;;15.73;7.57;;;9.00;99.90;;;;;;4978183;28;20190;-54
2022/10/13 08:10:49;;;;;;;13.00;7.60;;;9.10;99.90;;;;;;4984348;28;20034;-55
2022/10/13 08:13:15;;;;;;;10.40;7.57;;;9.10;99.90;;;;;;4977680;28;20557;-53
2022/10/13 08:15:42;;;;;;;12.18;7.97;;;9.20;99.90;;;;;;4983028;28;20497;-55
2022/10/13 08:18:13;;;;;;;11.07;7.90;;;9.30;99.90;;;;;;4978589;28;20516;-55
2022/10/13 08:20:43;;;;;;;11.85;7.20;;;9.30;99.90;;;;;;4980418;28;20083;-53
2022/10/13 08:23:10;;;;;;;13.40;8.15;;;9.40;99.90;;;;;;4983633;28;20513;-57
2022/10/13 08:25:37;;;;;;;10.82;8.40;;;9.50;99.90;;;;;;4981445;28;20158;-54
2022/10/13 08:28:04;;;;;;;14.63;8.38;;;9.60;99.90;;;;;;4979843;28;20019;-52
2022/10/13 08:30:29;;;;;;;11.55;7.57;;;9.70;99.90;;;;;;4983669;28;20107;-52
2022/10/13 08:32:55;;;;;;;11.02;7.43;;;9.80;99.90;;;;;;4983141;28;20447;-53
2022/10/13 08:35:20;;;;;;;14.73;8.30;;;9.80;99.90;;;;;;4988272;28;20404;-54
2022/10/13 08:37:46;;;;;;;14.13;8.32;;;9.90;99.90;;;;;;4980069;28;20046;-56
2022/10/13 08:40:18;;;;;;;13.55;8.02;;;10.00;99.90;;;;;;4981760;28;20031;-52
2022/10/13 08:42:45;;;;;;;14.27;7.35;;;10.10;99.90;;;;;;4979153;28;20105;-58
2022/10/13 08:45:25;;;;;;;10.30;7.65;;;10.20;99.90;;;;;;4987012;28;20030;-55
2022/10/13 08:47:57;;;;;;;13.98;7.63;;;10.20;99.90;;;;;;4976437;28;20500;-54
2022/10/13 08:50:25;;;;;;;10.57;7.10;;;10.20;99.90;;;;;;4985445;28;20488;-55
2022/10/13 08:52:59;;;;;;;13.65;8.18;;;10.30;99.90;;;;;;4985387;28;20026;-53
2022/10/13 08:55:48;;;;;;;15.70;9.05;;;10.40;99.90;;;;;;4985829;28;20484;-54
2022/10/13 08:58:26;;;;;;;15.88;9.50;;;10.50;99.90;;;;;;4985970;28;20042;-51
2022/10/13 09:01:13;;;;;;;13.73;9.05;;;10.60;99.90;;;;;;4984786;28;20065;-52
2022/10/13 09:03:51;;;;;;;;;;;10.70;99.90;;;;;;4977503;28;20511;-56
2022/10/13 09:06:30;;;;;;;12.45;9.00;;;10.80;99.90;;;;;;4978779;28;19916;-53
2022/10/13 09:09:02;;;;;;;16.63;9.25;;;10.90;99.90;;;;;;4982568;28;20023;-52
2022/10/13 09:11:35;;;;;;;15.73;10.57;;;11.00;99.90;;;;;;4985503;28;20109;-51
2022/10/13 09:14:07;;;;;;;15.38;10.05;;;11.20;99.90;;;;;;4984094;28;20046;-52
2022/10/13 09:16:41;;;;;;;14.80;10.18;;;11.20;99.90;;;;;;4985905;28;20034;-52
2022/10/13 09:19:13;;;;;;;16.33;10.38;;;11.30;99.90;;;;;;4983193;28;20583;-56
2022/10/13 09:21:39;;;;;;;17.40;11.45;;;11.40;99.90;;;;;;4986086;28;20109;-52
2022/10/13 09:24:15;;;;;;;14.95;10.52;;;11.40;99.90;;;;;;4982200;28;20118;-52
2022/10/13 09:26:42;;;;;;;17.38;9.00;;;11.50;99.90;;;;;;4985678;28;20098;-57
2022/10/13 09:29:22;;;;;;;18.15;9.95;;;11.50;99.90;;;;;;4983498;28;20053;-52
2022/10/13 09:31:48;;;;;;;18.27;10.60;;;11.60;99.90;;;;;;4978261;28;20529;-51
2022/10/13 09:34:20;;;;;;;15.05;9.85;;;11.70;99.90;;;;;;4975578;28;21302;-54
2022/10/13 09:37:03;;;;;;;16.42;10.55;;;11.70;99.90;;;;;;4984457;28;20026;-55
2022/10/13 09:39:31;;;;;;;16.55;10.60;;;11.80;99.90;;;;;;4979114;28;20038;-55
2022/10/13 09:42:18;;;;;;;14.13;10.48;;;11.80;99.90;;;;;;4976332;28;20031;-51
2022/10/13 09:44:45;;;;;;;19.52;10.55;;;11.90;99.90;;;;;;4984338;28;20027;-55
2022/10/13 09:47:20;;;;;;;19.58;11.77;;;11.90;99.90;;;;;;4984190;28;20469;-52
2022/10/13 09:49:56;;;;;;;15.23;10.77;;;12.00;99.90;;;;;;4982252;28;20078;-51
2022/10/13 09:52:24;;;;;;;20.23;11.40;;;12.00;99.90;;;;;;4980575;28;20117;-54
2022/10/13 09:54:56;;;;;;;15.07;10.93;;;12.00;99.90;;;;;;4982639;28;20046;-53
2022/10/13 09:57:34;;;;;;;19.77;11.90;;;12.10;99.90;;;;;;4984344;28;20019;-53
2022/10/13 10:00:21;;;;;;;17.65;11.77;;;12.10;99.90;;;;;;4983244;28;20023;-55
2022/10/13 10:02:59;;;;;;;14.63;11.77;;;12.20;99.90;;;;;;4983880;28;20467;-55
2022/10/13 10:05:50;;;;;;;23.25;11.02;;;12.30;99.90;;;;;;4976781;28;20053;-56
2022/10/13 10:08:36;;;;;;;15.82;11.25;;;12.30;99.90;;;;;;4995445;28;20246;-54
2022/10/13 10:11:09;;;;;;;17.30;11.55;;;12.40;99.90;;;;;;4987441;28;20019;-53
2022/10/13 10:13:35;;;;;;;17.88;11.52;;;12.40;99.90;;;;;;4980655;28;20023;-57
2022/10/13 10:16:09;;;;;;;15.05;11.00;;;12.40;99.90;;;;;;4987928;28;20057;-56
2022/10/13 10:18:46;;;;;;;15.30;10.85;;;12.50;99.90;;;;;;4980239;28;20042;-52
2022/10/13 10:21:28;;;;;;;20.98;11.65;;;12.50;99.90;;;;;;4983002;28;20113;-55
2022/10/13 10:23:53;;;;;;;14.50;11.05;;;12.50;99.90;;;;;;4982924;28;20030;-54
2022/10/13 10:26:24;;;;;;;14.98;11.05;;;12.50;99.90;;;;;;4983667;28;20019;-53
2022/10/13 10:29:12;;;;;;;19.60;11.20;;;12.60;99.90;;;;;;4983426;28;20026;-52
2022/10/13 10:31:51;;;;;;;15.45;10.45;;;12.60;99.90;;;;;;4983278;28;20030;-52
2022/10/13 10:34:29;;;;;;;17.80;12.10;;;12.60;99.90;;;;;;4977408;28;20046;-56
2022/10/13 10:37:07;;;;;;;17.17;11.45;;;12.60;99.90;;;;;;4986762;28;20030;-52
2022/10/13 10:39:50;;;;;;;15.98;10.32;;;12.70;99.90;;;;;;4979901;28;20128;-54
2022/10/13 10:42:54;;;;;;;18.83;11.77;;;12.70;99.90;;;;;;4979807;28;20033;-56
2022/10/13 10:45:24;;;;;;;17.50;11.20;;;12.80;99.90;;;;;;4971040;28;20125;-56
2022/10/13 10:47:59;;;;;;;15.32;10.30;;;12.90;99.90;;;;;;4979415;28;20015;-53
2022/10/13 10:50:25;;;;;;;15.93;10.70;;;12.90;99.90;;;;;;4983623;28;20019;-53
2022/10/13 10:53:52;;;;;;;14.52;10.65;;;13.00;99.90;;;;;;4982119;28;20097;-51
2022/10/13 10:56:43;;;;;;;17.00;10.25;;;13.10;99.90;;;;;;4916929;29;20105;-53
2022/10/13 10:59:36;;;;;;;16.77;10.45;;;13.20;99.90;;;;;;4993673;28;20409;-54
2022/10/13 11:02:24;;;;;;;15.52;10.35;;;13.20;99.90;;;;;;4977004;28;20513;-53
2022/10/13 11:04:52;;;;;;;17.10;11.15;;;13.20;99.90;;;;;;4982287;28;20026;-52
2022/10/13 11:07:23;;;;;;;16.90;10.80;;;13.40;99.90;;;;;;4983081;28;20023;-51
2022/10/13 11:09:52;;;;;;;15.75;10.32;;;13.40;99.90;;;;;;4985125;28;20019;-52
2022/10/13 11:12:18;;;;;;;17.33;10.10;;;13.50;99.90;;;;;;4979424;28;20511;-51
2022/10/13 11:14:53;;;;;;;12.98;10.23;;;13.50;99.90;;;;;;4976701;28;20063;-57
2022/10/13 11:17:37;;;;;;;15.82;11.25;;;13.60;99.90;;;;;;5003829;28;20075;-50
2022/10/13 11:20:21;;;;;;;14.10;11.70;;;13.70;99.90;;;;;;4983580;28;20034;-52
2022/10/13 11:22:58;;;;;;;16.05;10.20;;;13.80;99.90;;;;;;4976522;28;20052;-51
2022/10/13 11:25:39;;;;;;;17.90;11.00;;;14.00;99.90;;;;;;4980509;28;20485;-54
2022/10/13 11:28:41;;;;;;;15.60;11.05;;;14.10;99.90;;;;;;4980336;28;20109;-54
2022/10/13 11:31:12;;;;;;;16.75;11.10;;;14.30;99.90;;;;;;4981545;28;20031;-51
2022/10/13 11:33:38;;;;;;;13.57;10.68;;;14.40;99.90;;;;;;4982751;28;20054;-51
2022/10/13 11:36:41;;;;;;;17.27;10.70;;;14.50;99.90;;;;;;4983362;28;20074;-51
2022/10/13 11:39:28;;;;;;;14.40;9.23;;;14.50;99.90;;;;;;4979934;28;20030;-51
2022/10/13 11:42:15;;;;;;;16.52;10.07;;;14.50;99.90;;;;;;4985344;28;20038;-55
2022/10/13 11:44:54;;;;;;;14.68;10.43;;;14.60;99.90;;;;;;4978883;28;20389;-52
2022/10/13 11:47:52;;;;;;;19.50;11.27;;;14.70;99.90;;;;;;4981187;28;20415;-53
2022/10/13 11:50:28;;;;;;;13.77;10.43;;;14.70;99.90;;;;;;4978719;28;20077;-50
2022/10/13 11:53:05;;;;;;;15.38;9.70;;;14.80;99.90;;;;;;4975834;28;20037;-53
2022/10/13 11:55:46;;;;;;;15.88;10.73;;;14.90;99.90;;;;;;4982571;28;20082;-50
2022/10/13 11:58:25;;;;;;;18.70;10.52;;;14.90;99.90;;;;;;4980081;28;20485;-53
2022/10/13 12:01:02;;;;;;;10.77;8.93;;;14.90;99.90;;;;;;4986263;28;20042;-51
2022/10/13 12:03:29;;;;;;;13.25;8.95;;;14.80;99.90;;;;;;4978933;28;20022;-53
2022/10/13 12:05:59;;;;;;;18.13;10.48;;;14.80;99.90;;;;;;4984650;28;20432;-53
2022/10/13 12:08:26;;;;;;;17.67;9.82;;;14.80;99.90;;;;;;4978845;28;20098;-51
2022/10/13 12:10:56;;;;;;;16.55;10.02;;;14.70;99.90;;;;;;4982774;28;20023;-55
2022/10/13 12:13:30;;;;;;;15.48;8.48;;;14.70;99.90;;;;;;4982635;28;20398;-53
2022/10/13 12:16:05;;;;;;;13.57;9.43;;;14.80;99.90;;;;;;4986332;28;20026;-51
2022/10/13 12:18:37;;;;;;;14.63;9.90;;;14.70;99.90;;;;;;4986581;28;20050;-55
2022/10/13 12:21:09;;;;;;;15.82;9.77;;;14.70;99.90;;;;;;4982922;28;20038;-50
2022/10/13 12:23:35;;;;;;;14.65;9.13;;;14.80;99.90;;;;;;4982641;28;20034;-50
2022/10/13 12:26:01;;;;;;;14.32;8.18;;;14.70;99.90;;;;;;4988098;28;20031;-54
2022/10/13 12:28:41;;;;;;;9.98;7.47;;;14.80;99.90;;;;;;4987525;28;20030;-52
2022/10/13 12:31:18;;;;;;;11.00;8.07;;;14.80;99.90;;;;;;4985367;28;20397;-51
2022/10/13 12:34:00;;;;;;;15.63;9.25;;;14.80;99.90;;;;;;4988341;28;20033;-52
2022/10/13 12:36:31;;;;;;;12.57;8.55;;;14.80;99.90;;;;;;4980196;28;20515;-53
2022/10/13 12:39:03;;;;;;;12.25;8.05;;;14.90;99.90;;;;;;4984301;28;20030;-55
2022/10/13 12:41:36;;;;;;;17.15;8.13;;;14.90;99.90;;;;;;4975666;28;20354;-50
2022/10/13 12:44:03;;;;;;;12.93;8.60;;;14.90;99.90;;;;;;4986309;28;20073;-53
2022/10/13 12:46:43;;;;;;;14.10;8.88;;;15.00;99.90;;;;;;4982775;28;20031;-50
2022/10/13 12:49:16;;;;;;;14.77;9.02;;;14.90;99.90;;;;;;4986456;28;20019;-51
2022/10/13 12:51:48;;;;;;;11.63;9.07;;;14.90;99.90;;;;;;4977812;28;20490;-50
2022/10/13 12:54:26;;;;;;;13.38;9.20;;;14.90;99.90;;;;;;4988359;28;20022;-50
2022/10/13 12:56:55;;;;;;;14.02;8.98;;;14.80;99.90;;;;;;4979560;28;20026;-53
2022/10/13 12:59:23;;;;;;;11.73;9.18;;;14.90;99.90;;;;;;4992439;28;20088;-51
2022/10/13 13:01:55;;;;;;;12.30;9.50;;;14.90;99.90;;;;;;4983548;28;20022;-53
2022/10/13 13:04:21;;;;;;;19.23;10.30;;;14.80;99.90;;;;;;4985323;28;20032;-50
2022/10/13 13:06:57;;;;;;;14.88;10.55;;;14.80;99.90;;;;;;4981601;28;20019;-53
2022/10/13 13:09:26;;;;;;;14.75;9.85;;;14.80;99.90;;;;;;4972317;28;20019;-51
2022/10/13 13:12:09;;;;;;;13.90;9.98;;;14.70;99.90;;;;;;4981973;28;20131;-51